sensor_id;sensor_type;location;lat;lon;timestamp;temperature;humidity
39371;DHT22;25099;51.946;4.838;2023-05-08T00:00:19;16.40;99.90
39371;DHT22;25099;51.946;4.838;2023-05-08T00:02:45;16.40;99.90
39371;DHT22;25099;51.946;4.838;2023-05-08T00:05:11;16.40;99.90
39371;DHT22;25099;51.946;4.838;2023-05-08T00:07:37;16.40;99.90
39371;DHT22;25099;51.946;4.838;2023-05-08T00:10:07;16.40;99.90
39371;DHT22;25099;51.946;4.838;2023-05-08T00:12:34;16.40;99.90
39371;DHT22;25099;51.946;4.838;2023-05-08T00:14:59;16.30;99.90
39371;DHT22;25099;51.946;4.838;2023-05-08T00:17:25;16.30;99.90
39371;DHT22;25099;51.946;4.838;2023-05-08T00:19:51;16.40;99.90
39371;DHT22;25099;51.946;4.838;2023-05-08T00:22:17;16.40;99.90
39371;DHT22;25099;51.946;4.838;2023-05-08T00:24:43;16.40;99.90
39371;DHT22;25099;51.946;4.838;2023-05-08T00:27:09;16.40;99.90
39371;DHT22;25099;51.946;4.838;2023-05-08T00:29:34;16.40;99.90
39371;DHT22;25099;51.946;4.838;2023-05-08T00:32:00;16.50;99.90
39371;DHT22;25099;51.946;4.838;2023-05-08T00:34:25;16.40;99.90
39371;DHT22;25099;51.946;4.838;2023-05-08T00:36:51;16.30;99.90
39371;DHT22;25099;51.946;4.838;2023-05-08T00:39:17;16.30;99.90
39371;DHT22;25099;51.946;4.838;2023-05-08T00:41:42;16.30;99.90
39371;DHT22;25099;51.946;4.838;2023-05-08T00:44:08;16.30;99.90
39371;DHT22;25099;51.946;4.838;2023-05-08T00:46:35;16.30;99.90
39371;DHT22;25099;51.946;4.838;2023-05-08T00:49:02;16.30;99.90
39371;DHT22;25099;51.946;4.838;2023-05-08T00:51:29;16.30;99.90
39371;DHT22;25099;51.946;4.838;2023-05-08T00:53:56;16.20;99.90
39371;DHT22;25099;51.946;4.838;2023-05-08T00:56:22;16.20;99.90
39371;DHT22;25099;51.946;4.838;2023-05-08T00:58:48;16.20;99.90
39371;DHT22;25099;51.946;4.838;2023-05-08T01:01:15;16.20;99.90
39371;DHT22;25099;51.946;4.838;2023-05-08T01:03:42;16.20;99.90
39371;DHT22;25099;51.946;4.838;2023-05-08T01:06:09;16.20;99.90
39371;DHT22;25099;51.946;4.838;2023-05-08T01:08:34;16.20;99.90
39371;DHT22;25099;51.946;4.838;2023-05-08T01:11:03;16.20;99.90
39371;DHT22;25099;51.946;4.838;2023-05-08T01:13:48;16.10;99.90
39371;DHT22;25099;51.946;4.838;2023-05-08T01:16:28;16.20;99.90
39371;DHT22;25099;51.946;4.838;2023-05-08T01:19:03;16.10;99.90
39371;DHT22;25099;51.946;4.838;2023-05-08T01:21:41;16.10;99.90
39371;DHT22;25099;51.946;4.838;2023-05-08T01:24:30;16.10;99.90
39371;DHT22;25099;51.946;4.838;2023-05-08T01:27:17;16.10;99.90
39371;DHT22;25099;51.946;4.838;2023-05-08T01:33:35;16.00;99.90
39371;DHT22;25099;51.946;4.838;2023-05-08T01:35:46;15.90;99.90
39371;DHT22;25099;51.946;4.838;2023-05-08T01:41:02;15.70;99.90
39371;DHT22;25099;51.946;4.838;2023-05-08T01:43:51;15.50;99.90
39371;DHT22;25099;51.946;4.838;2023-05-08T01:46:21;15.60;99.90
39371;DHT22;25099;51.946;4.838;2023-05-08T01:48:59;15.60;99.90
39371;DHT22;25099;51.946;4.838;2023-05-08T01:51:34;15.70;99.90
39371;DHT22;25099;51.946;4.838;2023-05-08T01:54:06;15.80;99.90
39371;DHT22;25099;51.946;4.838;2023-05-08T01:56:33;15.80;99.90
39371;DHT22;25099;51.946;4.838;2023-05-08T01:59:00;15.80;99.90
39371;DHT22;25099;51.946;4.838;2023-05-08T02:01:27;15.80;99.90
39371;DHT22;25099;51.946;4.838;2023-05-08T02:03:54;15.80;99.90
39371;DHT22;25099;51.946;4.838;2023-05-08T02:06:21;15.80;99.90
39371;DHT22;25099;51.946;4.838;2023-05-08T02:08:48;15.90;99.90
39371;DHT22;25099;51.946;4.838;2023-05-08T02:11:16;16.00;99.90
39371;DHT22;25099;51.946;4.838;2023-05-08T02:13:44;16.00;99.90
39371;DHT22;25099;51.946;4.838;2023-05-08T02:16:11;16.00;99.90
39371;DHT22;25099;51.946;4.838;2023-05-08T02:18:40;16.10;99.90
39371;DHT22;25099;51.946;4.838;2023-05-08T02:21:07;16.10;99.90
39371;DHT22;25099;51.946;4.838;2023-05-08T02:23:34;16.10;99.90
39371;DHT22;25099;51.946;4.838;2023-05-08T02:26:01;16.10;99.90
39371;DHT22;25099;51.946;4.838;2023-05-08T02:28:28;16.10;99.90
39371;DHT22;25099;51.946;4.838;2023-05-08T02:30:55;16.10;99.90
39371;DHT22;25099;51.946;4.838;2023-05-08T02:33:23;16.20;99.90
39371;DHT22;25099;51.946;4.838;2023-05-08T02:35:50;16.10;99.90
39371;DHT22;25099;51.946;4.838;2023-05-08T02:38:19;16.10;99.90
39371;DHT22;25099;51.946;4.838;2023-05-08T02:40:47;16.20;99.90
39371;DHT22;25099;51.946;4.838;2023-05-08T02:43:14;16.20;99.90
39371;DHT22;25099;51.946;4.838;2023-05-08T02:46:00;16.20;99.90
39371;DHT22;25099;51.946;4.838;2023-05-08T02:48:34;16.30;99.90
39371;DHT22;25099;51.946;4.838;2023-05-08T02:54:02;16.20;99.90
39371;DHT22;25099;51.946;4.838;2023-05-08T02:59:13;16.20;99.90
39371;DHT22;25099;51.946;4.838;2023-05-08T03:04:33;16.10;99.90
39371;DHT22;25099;51.946;4.838;2023-05-08T03:07:02;16.10;99.90
39371;DHT22;25099;51.946;4.838;2023-05-08T03:09:40;16.10;99.90
39371;DHT22;25099;51.946;4.838;2023-05-08T03:12:12;16.20;99.90
39371;DHT22;25099;51.946;4.838;2023-05-08T03:14:51;16.10;99.90
39371;DHT22;25099;51.946;4.838;2023-05-08T03:17:20;16.20;99.90
39371;DHT22;25099;51.946;4.838;2023-05-08T03:19:49;16.20;99.90
39371;DHT22;25099;51.946;4.838;2023-05-08T03:22:18;16.20;99.90
39371;DHT22;25099;51.946;4.838;2023-05-08T03:24:45;16.20;99.90
39371;DHT22;25099;51.946;4.838;2023-05-08T03:27:11;16.20;99.90
39371;DHT22;25099;51.946;4.838;2023-05-08T03:29:38;16.20;99.90
39371;DHT22;25099;51.946;4.838;2023-05-08T03:32:04;16.20;99.90
39371;DHT22;25099;51.946;4.838;2023-05-08T03:34:30;16.20;99.90
39371;DHT22;25099;51.946;4.838;2023-05-08T03:36:57;16.20;99.90
39371;DHT22;25099;51.946;4.838;2023-05-08T03:39:24;16.20;99.90
39371;DHT22;25099;51.946;4.838;2023-05-08T03:41:51;16.20;99.90
39371;DHT22;25099;51.946;4.838;2023-05-08T03:44:16;16.10;99.90
39371;DHT22;25099;51.946;4.838;2023-05-08T03:46:44;16.10;99.90
39371;DHT22;25099;51.946;4.838;2023-05-08T03:49:11;16.10;99.90
39371;DHT22;25099;51.946;4.838;2023-05-08T03:51:38;16.10;99.90
39371;DHT22;25099;51.946;4.838;2023-05-08T03:54:04;16.10;99.90
39371;DHT22;25099;51.946;4.838;2023-05-08T03:56:30;16.10;99.90
39371;DHT22;25099;51.946;4.838;2023-05-08T04:01:51;16.10;99.90
39371;DHT22;25099;51.946;4.838;2023-05-08T04:04:32;16.10;99.90
39371;DHT22;25099;51.946;4.838;2023-05-08T04:07:09;16.10;99.90
39371;DHT22;25099;51.946;4.838;2023-05-08T04:09:57;16.10;99.90
39371;DHT22;25099;51.946;4.838;2023-05-08T04:15:21;16.00;99.90
39371;DHT22;25099;51.946;4.838;2023-05-08T04:18:05;16.00;99.90
39371;DHT22;25099;51.946;4.838;2023-05-08T04:20:31;15.90;99.90
39371;DHT22;25099;51.946;4.838;2023-05-08T04:22:58;15.90;99.90
39371;DHT22;25099;51.946;4.838;2023-05-08T04:25:24;15.90;99.90
39371;DHT22;25099;51.946;4.838;2023-05-08T04:27:50;15.90;99.90
39371;DHT22;25099;51.946;4.838;2023-05-08T04:30:17;15.90;99.90
39371;DHT22;25099;51.946;4.838;2023-05-08T04:32:43;15.90;99.90
39371;DHT22;25099;51.946;4.838;2023-05-08T04:35:09;15.90;99.90
39371;DHT22;25099;51.946;4.838;2023-05-08T04:37:37;15.80;99.90
39371;DHT22;25099;51.946;4.838;2023-05-08T04:40:03;15.80;99.90
39371;DHT22;25099;51.946;4.838;2023-05-08T04:42:29;15.80;99.90
39371;DHT22;25099;51.946;4.838;2023-05-08T04:44:55;15.90;99.90
39371;DHT22;25099;51.946;4.838;2023-05-08T04:47:20;15.90;99.90
39371;DHT22;25099;51.946;4.838;2023-05-08T04:49:46;15.90;99.90
39371;DHT22;25099;51.946;4.838;2023-05-08T04:52:11;15.80;99.90
39371;DHT22;25099;51.946;4.838;2023-05-08T04:54:37;15.90;99.90
39371;DHT22;25099;51.946;4.838;2023-05-08T04:57:03;15.80;99.90
39371;DHT22;25099;51.946;4.838;2023-05-08T04:59:29;15.50;99.90
39371;DHT22;25099;51.946;4.838;2023-05-08T05:01:55;15.60;99.90
39371;DHT22;25099;51.946;4.838;2023-05-08T05:04:21;15.70;99.90
39371;DHT22;25099;51.946;4.838;2023-05-08T05:06:47;15.70;99.90
39371;DHT22;25099;51.946;4.838;2023-05-08T05:09:12;15.80;99.90
39371;DHT22;25099;51.946;4.838;2023-05-08T05:11:38;15.70;99.90
39371;DHT22;25099;51.946;4.838;2023-05-08T05:14:03;15.70;99.90
39371;DHT22;25099;51.946;4.838;2023-05-08T05:16:29;15.70;99.90
39371;DHT22;25099;51.946;4.838;2023-05-08T05:18:54;15.80;99.90
39371;DHT22;25099;51.946;4.838;2023-05-08T05:21:20;15.70;99.90
39371;DHT22;25099;51.946;4.838;2023-05-08T05:23:45;16.60;99.90
39371;DHT22;25099;51.946;4.838;2023-05-08T05:26:11;15.80;99.90
39371;DHT22;25099;51.946;4.838;2023-05-08T05:28:37;15.80;99.90
39371;DHT22;25099;51.946;4.838;2023-05-08T05:31:02;15.80;99.90
39371;DHT22;25099;51.946;4.838;2023-05-08T05:33:28;15.80;99.90
39371;DHT22;25099;51.946;4.838;2023-05-08T05:35:53;15.70;99.90
39371;DHT22;25099;51.946;4.838;2023-05-08T05:38:19;15.70;99.90
39371;DHT22;25099;51.946;4.838;2023-05-08T05:40:45;15.70;99.90
39371;DHT22;25099;51.946;4.838;2023-05-08T05:43:10;15.80;99.90
39371;DHT22;25099;51.946;4.838;2023-05-08T05:45:36;15.80;99.90
39371;DHT22;25099;51.946;4.838;2023-05-08T05:48:01;15.80;99.90
39371;DHT22;25099;51.946;4.838;2023-05-08T05:50:27;15.80;99.90
39371;DHT22;25099;51.946;4.838;2023-05-08T05:52:53;15.70;99.90
39371;DHT22;25099;51.946;4.838;2023-05-08T05:55:19;15.70;99.90
39371;DHT22;25099;51.946;4.838;2023-05-08T05:57:45;15.70;99.90
39371;DHT22;25099;51.946;4.838;2023-05-08T06:00:11;15.70;99.90
39371;DHT22;25099;51.946;4.838;2023-05-08T06:02:37;15.70;99.90
39371;DHT22;25099;51.946;4.838;2023-05-08T06:05:03;15.70;99.90
39371;DHT22;25099;51.946;4.838;2023-05-08T06:07:29;15.70;99.90
39371;DHT22;25099;51.946;4.838;2023-05-08T06:09:55;15.70;99.90
39371;DHT22;25099;51.946;4.838;2023-05-08T06:12:20;15.60;99.90
39371;DHT22;25099;51.946;4.838;2023-05-08T06:14:46;15.60;99.90
39371;DHT22;25099;51.946;4.838;2023-05-08T06:17:12;15.60;99.90
39371;DHT22;25099;51.946;4.838;2023-05-08T06:19:37;15.60;99.90
39371;DHT22;25099;51.946;4.838;2023-05-08T06:22:03;15.60;99.90
39371;DHT22;25099;51.946;4.838;2023-05-08T06:24:28;15.50;99.90
39371;DHT22;25099;51.946;4.838;2023-05-08T06:26:54;15.50;99.90
39371;DHT22;25099;51.946;4.838;2023-05-08T06:29:19;15.40;99.90
39371;DHT22;25099;51.946;4.838;2023-05-08T06:31:45;15.50;99.90
39371;DHT22;25099;51.946;4.838;2023-05-08T06:34:10;15.20;99.90
39371;DHT22;25099;51.946;4.838;2023-05-08T06:36:36;15.20;99.90
39371;DHT22;25099;51.946;4.838;2023-05-08T06:39:05;15.20;99.90
39371;DHT22;25099;51.946;4.838;2023-05-08T06:41:31;15.30;99.90
39371;DHT22;25099;51.946;4.838;2023-05-08T06:43:56;15.20;99.90
39371;DHT22;25099;51.946;4.838;2023-05-08T06:46:22;15.20;99.90
39371;DHT22;25099;51.946;4.838;2023-05-08T06:48:47;15.30;99.90
39371;DHT22;25099;51.946;4.838;2023-05-08T06:51:13;15.20;99.90
39371;DHT22;25099;51.946;4.838;2023-05-08T06:53:39;15.30;99.90
39371;DHT22;25099;51.946;4.838;2023-05-08T06:56:05;15.20;99.90
39371;DHT22;25099;51.946;4.838;2023-05-08T06:58:30;15.30;99.90
39371;DHT22;25099;51.946;4.838;2023-05-08T07:00:58;15.20;99.90
39371;DHT22;25099;51.946;4.838;2023-05-08T07:03:25;15.20;99.90
39371;DHT22;25099;51.946;4.838;2023-05-08T07:05:50;15.20;99.90
39371;DHT22;25099;51.946;4.838;2023-05-08T07:08:16;15.30;99.90
39371;DHT22;25099;51.946;4.838;2023-05-08T07:10:41;15.30;99.90
39371;DHT22;25099;51.946;4.838;2023-05-08T07:13:07;15.30;99.90
39371;DHT22;25099;51.946;4.838;2023-05-08T07:15:33;15.30;99.90
39371;DHT22;25099;51.946;4.838;2023-05-08T07:17:58;15.30;99.90
39371;DHT22;25099;51.946;4.838;2023-05-08T07:20:24;15.30;99.90
39371;DHT22;25099;51.946;4.838;2023-05-08T07:22:49;15.30;99.90
39371;DHT22;25099;51.946;4.838;2023-05-08T07:25:15;15.40;99.90
39371;DHT22;25099;51.946;4.838;2023-05-08T07:27:41;15.40;99.90
39371;DHT22;25099;51.946;4.838;2023-05-08T07:30:07;15.40;99.90
39371;DHT22;25099;51.946;4.838;2023-05-08T07:32:33;15.40;99.90
39371;DHT22;25099;51.946;4.838;2023-05-08T07:34:58;15.50;99.90
39371;DHT22;25099;51.946;4.838;2023-05-08T07:37:24;15.50;99.90
39371;DHT22;25099;51.946;4.838;2023-05-08T07:39:50;15.50;99.90
39371;DHT22;25099;51.946;4.838;2023-05-08T07:42:15;15.60;99.90
39371;DHT22;25099;51.946;4.838;2023-05-08T07:44:42;15.60;99.90
39371;DHT22;25099;51.946;4.838;2023-05-08T07:47:08;15.60;99.90
39371;DHT22;25099;51.946;4.838;2023-05-08T07:49:33;15.60;99.90
39371;DHT22;25099;51.946;4.838;2023-05-08T07:51:59;15.70;99.90
39371;DHT22;25099;51.946;4.838;2023-05-08T07:54:24;15.70;99.90
39371;DHT22;25099;51.946;4.838;2023-05-08T07:56:50;15.70;99.90
39371;DHT22;25099;51.946;4.838;2023-05-08T07:59:16;15.70;99.90
39371;DHT22;25099;51.946;4.838;2023-05-08T08:01:42;15.80;99.90
39371;DHT22;25099;51.946;4.838;2023-05-08T08:04:12;15.80;99.90
39371;DHT22;25099;51.946;4.838;2023-05-08T08:06:38;15.80;99.90
39371;DHT22;25099;51.946;4.838;2023-05-08T08:09:04;15.70;99.90
39371;DHT22;25099;51.946;4.838;2023-05-08T08:11:30;15.80;99.90
39371;DHT22;25099;51.946;4.838;2023-05-08T08:13:55;15.80;99.90
39371;DHT22;25099;51.946;4.838;2023-05-08T08:16:21;15.90;99.90
39371;DHT22;25099;51.946;4.838;2023-05-08T08:18:47;15.90;99.90
39371;DHT22;25099;51.946;4.838;2023-05-08T08:21:12;16.00;99.90
39371;DHT22;25099;51.946;4.838;2023-05-08T08:23:38;16.00;99.90
39371;DHT22;25099;51.946;4.838;2023-05-08T08:26:03;16.00;99.90
39371;DHT22;25099;51.946;4.838;2023-05-08T08:28:29;16.00;99.90
39371;DHT22;25099;51.946;4.838;2023-05-08T08:30:54;16.00;99.90
39371;DHT22;25099;51.946;4.838;2023-05-08T08:33:20;16.00;99.90
39371;DHT22;25099;51.946;4.838;2023-05-08T08:35:46;16.00;99.90
39371;DHT22;25099;51.946;4.838;2023-05-08T08:38:11;16.00;99.90
39371;DHT22;25099;51.946;4.838;2023-05-08T08:40:38;16.10;99.90
39371;DHT22;25099;51.946;4.838;2023-05-08T08:43:04;16.10;99.90
39371;DHT22;25099;51.946;4.838;2023-05-08T08:45:30;16.10;99.90
39371;DHT22;25099;51.946;4.838;2023-05-08T08:48:00;16.10;99.90
39371;DHT22;25099;51.946;4.838;2023-05-08T08:50:30;16.10;99.90
39371;DHT22;25099;51.946;4.838;2023-05-08T08:55:38;16.20;99.90
39371;DHT22;25099;51.946;4.838;2023-05-08T09:00:38;16.30;99.90
39371;DHT22;25099;51.946;4.838;2023-05-08T09:03:05;16.30;99.90
39371;DHT22;25099;51.946;4.838;2023-05-08T09:05:32;16.40;99.90
39371;DHT22;25099;51.946;4.838;2023-05-08T09:07:58;16.40;99.90
39371;DHT22;25099;51.946;4.838;2023-05-08T09:10:24;16.40;99.90
39371;DHT22;25099;51.946;4.838;2023-05-08T09:12:50;16.40;99.90
39371;DHT22;25099;51.946;4.838;2023-05-08T09:15:16;16.40;99.90
39371;DHT22;25099;51.946;4.838;2023-05-08T09:17:41;16.50;99.90
39371;DHT22;25099;51.946;4.838;2023-05-08T09:20:08;16.70;99.90
39371;DHT22;25099;51.946;4.838;2023-05-08T09:22:37;16.50;99.90
39371;DHT22;25099;51.946;4.838;2023-05-08T09:25:03;16.60;99.90
39371;DHT22;25099;51.946;4.838;2023-05-08T09:27:31;16.60;99.90
39371;DHT22;25099;51.946;4.838;2023-05-08T09:30:10;16.60;99.90
39371;DHT22;25099;51.946;4.838;2023-05-08T09:32:38;16.60;99.90
39371;DHT22;25099;51.946;4.838;2023-05-08T09:35:05;16.70;99.90
39371;DHT22;25099;51.946;4.838;2023-05-08T09:37:31;16.70;99.90
39371;DHT22;25099;51.946;4.838;2023-05-08T09:40:18;16.80;99.90
39371;DHT22;25099;51.946;4.838;2023-05-08T09:42:46;16.70;99.90
39371;DHT22;25099;51.946;4.838;2023-05-08T09:45:27;16.80;99.90
39371;DHT22;25099;51.946;4.838;2023-05-08T09:47:53;16.80;99.90
39371;DHT22;25099;51.946;4.838;2023-05-08T09:50:19;16.80;99.90
39371;DHT22;25099;51.946;4.838;2023-05-08T09:52:46;16.80;99.90
39371;DHT22;25099;51.946;4.838;2023-05-08T09:55:12;16.90;99.90
39371;DHT22;25099;51.946;4.838;2023-05-08T09:57:40;16.90;99.90
39371;DHT22;25099;51.946;4.838;2023-05-08T10:00:15;16.90;99.90
39371;DHT22;25099;51.946;4.838;2023-05-08T10:02:53;16.80;99.90
39371;DHT22;25099;51.946;4.838;2023-05-08T10:05:27;16.90;99.90
39371;DHT22;25099;51.946;4.838;2023-05-08T10:07:54;17.00;99.90
39371;DHT22;25099;51.946;4.838;2023-05-08T10:10:24;17.00;99.90
39371;DHT22;25099;51.946;4.838;2023-05-08T10:12:52;17.10;99.90
39371;DHT22;25099;51.946;4.838;2023-05-08T10:15:22;17.10;99.90
39371;DHT22;25099;51.946;4.838;2023-05-08T10:17:54;17.10;99.90
39371;DHT22;25099;51.946;4.838;2023-05-08T10:20:29;17.10;99.90
39371;DHT22;25099;51.946;4.838;2023-05-08T10:22:55;17.10;99.90
39371;DHT22;25099;51.946;4.838;2023-05-08T10:25:22;17.10;99.90
39371;DHT22;25099;51.946;4.838;2023-05-08T10:28:22;17.20;99.90
39371;DHT22;25099;51.946;4.838;2023-05-08T10:30:55;17.10;99.90
39371;DHT22;25099;51.946;4.838;2023-05-08T10:33:26;17.10;99.90
39371;DHT22;25099;51.946;4.838;2023-05-08T10:35:54;17.10;99.90
39371;DHT22;25099;51.946;4.838;2023-05-08T10:38:21;17.10;99.90
39371;DHT22;25099;51.946;4.838;2023-05-08T10:40:47;17.10;99.90
39371;DHT22;25099;51.946;4.838;2023-05-08T10:43:15;17.10;99.90
39371;DHT22;25099;51.946;4.838;2023-05-08T10:45:41;17.10;99.90
39371;DHT22;25099;51.946;4.838;2023-05-08T10:48:10;17.60;99.90
39371;DHT22;25099;51.946;4.838;2023-05-08T10:50:41;17.10;99.90
39371;DHT22;25099;51.946;4.838;2023-05-08T10:53:24;17.10;99.90
39371;DHT22;25099;51.946;4.838;2023-05-08T10:55:54;17.10;99.90
39371;DHT22;25099;51.946;4.838;2023-05-08T11:03:19;17.10;99.90
39371;DHT22;25099;51.946;4.838;2023-05-08T11:05:48;17.10;99.90
39371;DHT22;25099;51.946;4.838;2023-05-08T11:08:16;17.10;99.90
39371;DHT22;25099;51.946;4.838;2023-05-08T11:10:43;17.10;99.90
39371;DHT22;25099;51.946;4.838;2023-05-08T11:13:11;17.10;99.90
39371;DHT22;25099;51.946;4.838;2023-05-08T11:15:40;17.20;99.90
39371;DHT22;25099;51.946;4.838;2023-05-08T11:18:08;17.20;99.90
39371;DHT22;25099;51.946;4.838;2023-05-08T11:20:39;17.10;99.90
39371;DHT22;25099;51.946;4.838;2023-05-08T11:25:47;17.30;99.90
39371;DHT22;25099;51.946;4.838;2023-05-08T11:28:15;17.20;99.90
39371;DHT22;25099;51.946;4.838;2023-05-08T11:30:43;17.30;99.90
39371;DHT22;25099;51.946;4.838;2023-05-08T11:39:16;17.30;99.90
39371;DHT22;25099;51.946;4.838;2023-05-08T11:41:42;17.20;99.90
39371;DHT22;25099;51.946;4.838;2023-05-08T11:44:19;17.30;99.90
39371;DHT22;25099;51.946;4.838;2023-05-08T11:46:54;17.20;99.90
39371;DHT22;25099;51.946;4.838;2023-05-08T11:49:24;17.30;99.90
39371;DHT22;25099;51.946;4.838;2023-05-08T11:51:52;17.30;99.90
39371;DHT22;25099;51.946;4.838;2023-05-08T11:54:22;17.30;99.90
39371;DHT22;25099;51.946;4.838;2023-05-08T11:56:49;17.30;99.90
39371;DHT22;25099;51.946;4.838;2023-05-08T11:59:16;17.30;99.90
39371;DHT22;25099;51.946;4.838;2023-05-08T12:01:42;17.40;99.90
39371;DHT22;25099;51.946;4.838;2023-05-08T12:04:10;17.30;99.90
39371;DHT22;25099;51.946;4.838;2023-05-08T12:06:37;17.40;99.90
39371;DHT22;25099;51.946;4.838;2023-05-08T12:09:17;17.30;99.90
39371;DHT22;25099;51.946;4.838;2023-05-08T12:11:44;17.40;99.90
39371;DHT22;25099;51.946;4.838;2023-05-08T12:14:16;17.40;99.90
39371;DHT22;25099;51.946;4.838;2023-05-08T12:16:42;17.50;99.90
39371;DHT22;25099;51.946;4.838;2023-05-08T12:19:12;17.60;99.90
39371;DHT22;25099;51.946;4.838;2023-05-08T12:21:44;17.50;99.90
39371;DHT22;25099;51.946;4.838;2023-05-08T12:24:10;17.70;99.90
39371;DHT22;25099;51.946;4.838;2023-05-08T12:26:36;17.50;99.90
39371;DHT22;25099;51.946;4.838;2023-05-08T12:29:05;17.50;99.90
39371;DHT22;25099;51.946;4.838;2023-05-08T12:31:33;17.60;99.90
39371;DHT22;25099;51.946;4.838;2023-05-08T12:33:59;17.90;99.90
39371;DHT22;25099;51.946;4.838;2023-05-08T12:36:25;17.60;99.90
39371;DHT22;25099;51.946;4.838;2023-05-08T12:38:51;17.60;99.90
39371;DHT22;25099;51.946;4.838;2023-05-08T12:41:22;17.60;99.90
39371;DHT22;25099;51.946;4.838;2023-05-08T12:43:48;17.80;99.90
39371;DHT22;25099;51.946;4.838;2023-05-08T12:46:14;17.70;99.90
39371;DHT22;25099;51.946;4.838;2023-05-08T12:48:42;17.70;99.90
39371;DHT22;25099;51.946;4.838;2023-05-08T12:51:09;18.00;99.90
39371;DHT22;25099;51.946;4.838;2023-05-08T12:53:36;17.80;99.90
39371;DHT22;25099;51.946;4.838;2023-05-08T12:56:03;17.80;99.90
39371;DHT22;25099;51.946;4.838;2023-05-08T12:58:31;17.80;99.90
39371;DHT22;25099;51.946;4.838;2023-05-08T13:01:08;17.80;99.90
39371;DHT22;25099;51.946;4.838;2023-05-08T13:03:36;17.90;99.90
39371;DHT22;25099;51.946;4.838;2023-05-08T13:06:02;17.90;99.90
39371;DHT22;25099;51.946;4.838;2023-05-08T13:08:30;17.90;99.90
39371;DHT22;25099;51.946;4.838;2023-05-08T13:10:57;17.80;99.90
39371;DHT22;25099;51.946;4.838;2023-05-08T13:13:24;17.90;99.90
39371;DHT22;25099;51.946;4.838;2023-05-08T13:15:51;17.90;99.90
39371;DHT22;25099;51.946;4.838;2023-05-08T13:18:17;18.00;99.90
39371;DHT22;25099;51.946;4.838;2023-05-08T13:20:43;18.00;99.90
39371;DHT22;25099;51.946;4.838;2023-05-08T13:23:09;18.00;99.90
39371;DHT22;25099;51.946;4.838;2023-05-08T13:25:35;18.00;99.90
39371;DHT22;25099;51.946;4.838;2023-05-08T13:28:03;18.00;99.90
39371;DHT22;25099;51.946;4.838;2023-05-08T13:30:28;18.00;99.90
39371;DHT22;25099;51.946;4.838;2023-05-08T13:32:54;18.00;99.90
39371;DHT22;25099;51.946;4.838;2023-05-08T13:35:20;18.00;99.90
39371;DHT22;25099;51.946;4.838;2023-05-08T13:37:46;18.10;99.90
39371;DHT22;25099;51.946;4.838;2023-05-08T13:40:12;18.20;99.90
39371;DHT22;25099;51.946;4.838;2023-05-08T13:42:38;18.20;99.90
39371;DHT22;25099;51.946;4.838;2023-05-08T13:45:05;18.10;99.90
39371;DHT22;25099;51.946;4.838;2023-05-08T13:47:31;18.10;99.90
39371;DHT22;25099;51.946;4.838;2023-05-08T13:49:57;18.20;99.90
39371;DHT22;25099;51.946;4.838;2023-05-08T13:52:23;18.30;99.90
39371;DHT22;25099;51.946;4.838;2023-05-08T13:54:49;18.30;99.90
39371;DHT22;25099;51.946;4.838;2023-05-08T13:57:14;18.40;99.90
39371;DHT22;25099;51.946;4.838;2023-05-08T13:59:40;18.40;99.90
39371;DHT22;25099;51.946;4.838;2023-05-08T14:02:05;18.40;99.90
39371;DHT22;25099;51.946;4.838;2023-05-08T14:04:31;18.50;99.90
39371;DHT22;25099;51.946;4.838;2023-05-08T14:06:57;18.50;99.90
39371;DHT22;25099;51.946;4.838;2023-05-08T14:09:22;18.40;99.90
39371;DHT22;25099;51.946;4.838;2023-05-08T14:11:48;18.40;99.90
39371;DHT22;25099;51.946;4.838;2023-05-08T14:14:13;18.40;99.90
39371;DHT22;25099;51.946;4.838;2023-05-08T14:16:39;18.30;99.90
39371;DHT22;25099;51.946;4.838;2023-05-08T14:19:04;18.40;99.90
39371;DHT22;25099;51.946;4.838;2023-05-08T14:21:30;18.20;99.90
39371;DHT22;25099;51.946;4.838;2023-05-08T14:23:56;18.10;99.90
39371;DHT22;25099;51.946;4.838;2023-05-08T14:26:21;18.10;99.90
39371;DHT22;25099;51.946;4.838;2023-05-08T14:28:47;18.10;99.90
39371;DHT22;25099;51.946;4.838;2023-05-08T14:31:13;18.00;99.90
39371;DHT22;25099;51.946;4.838;2023-05-08T14:33:38;18.00;99.90
39371;DHT22;25099;51.946;4.838;2023-05-08T14:36:04;18.00;99.90
39371;DHT22;25099;51.946;4.838;2023-05-08T14:38:30;18.00;99.90
39371;DHT22;25099;51.946;4.838;2023-05-08T14:40:55;18.00;99.90
39371;DHT22;25099;51.946;4.838;2023-05-08T14:43:21;18.00;99.90
39371;DHT22;25099;51.946;4.838;2023-05-08T14:45:47;18.00;99.90
39371;DHT22;25099;51.946;4.838;2023-05-08T14:48:13;18.00;99.90
39371;DHT22;25099;51.946;4.838;2023-05-08T14:50:39;18.10;99.90
39371;DHT22;25099;51.946;4.838;2023-05-08T14:53:04;18.00;99.90
39371;DHT22;25099;51.946;4.838;2023-05-08T14:55:30;18.00;99.90
39371;DHT22;25099;51.946;4.838;2023-05-08T14:57:55;18.00;99.90
39371;DHT22;25099;51.946;4.838;2023-05-08T15:00:21;18.00;99.90
39371;DHT22;25099;51.946;4.838;2023-05-08T15:02:49;18.00;99.90
39371;DHT22;25099;51.946;4.838;2023-05-08T15:05:14;18.00;99.90
39371;DHT22;25099;51.946;4.838;2023-05-08T15:07:40;18.00;99.90
39371;DHT22;25099;51.946;4.838;2023-05-08T15:10:06;18.00;99.90
39371;DHT22;25099;51.946;4.838;2023-05-08T15:12:32;18.00;99.90
39371;DHT22;25099;51.946;4.838;2023-05-08T15:14:57;18.00;99.90
39371;DHT22;25099;51.946;4.838;2023-05-08T15:17:23;18.10;99.90
39371;DHT22;25099;51.946;4.838;2023-05-08T15:19:48;18.00;99.90
39371;DHT22;25099;51.946;4.838;2023-05-08T15:22:14;17.90;99.90
39371;DHT22;25099;51.946;4.838;2023-05-08T15:24:40;17.90;99.90
39371;DHT22;25099;51.946;4.838;2023-05-08T15:27:06;17.90;99.90
39371;DHT22;25099;51.946;4.838;2023-05-08T15:29:31;17.90;99.90
39371;DHT22;25099;51.946;4.838;2023-05-08T15:31:57;17.90;99.90
39371;DHT22;25099;51.946;4.838;2023-05-08T15:34:23;17.90;99.90
39371;DHT22;25099;51.946;4.838;2023-05-08T15:36:48;17.90;99.90
39371;DHT22;25099;51.946;4.838;2023-05-08T15:39:14;17.90;99.90
39371;DHT22;25099;51.946;4.838;2023-05-08T15:41:39;17.90;99.90
39371;DHT22;25099;51.946;4.838;2023-05-08T15:44:08;17.90;99.90
39371;DHT22;25099;51.946;4.838;2023-05-08T15:46:34;17.90;99.90
39371;DHT22;25099;51.946;4.838;2023-05-08T15:48:59;17.90;99.90
39371;DHT22;25099;51.946;4.838;2023-05-08T15:51:25;18.50;99.90
39371;DHT22;25099;51.946;4.838;2023-05-08T15:53:50;18.00;99.90
39371;DHT22;25099;51.946;4.838;2023-05-08T15:56:17;18.00;99.90
39371;DHT22;25099;51.946;4.838;2023-05-08T15:58:45;18.10;99.90
39371;DHT22;25099;51.946;4.838;2023-05-08T16:01:11;18.20;99.90
39371;DHT22;25099;51.946;4.838;2023-05-08T16:03:36;18.30;99.90
39371;DHT22;25099;51.946;4.838;2023-05-08T16:06:02;18.20;99.90
39371;DHT22;25099;51.946;4.838;2023-05-08T16:08:29;18.30;99.90
39371;DHT22;25099;51.946;4.838;2023-05-08T16:10:55;18.20;99.90